sensor_id;sensor_type;location;lat;lon;timestamp;temperature;humidity
44111;DHT22;29774;52.664;5.074;2022-11-21T00:01:58;2.40;94.60
44111;DHT22;29774;52.664;5.074;2022-11-21T00:04:24;2.40;94.60
44111;DHT22;29774;52.664;5.074;2022-11-21T00:06:50;2.40;94.50
44111;DHT22;29774;52.664;5.074;2022-11-21T00:09:17;2.40;94.60
44111;DHT22;29774;52.664;5.074;2022-11-21T00:11:42;2.40;94.50
44111;DHT22;29774;52.664;5.074;2022-11-21T00:14:08;2.40;94.50
44111;DHT22;29774;52.664;5.074;2022-11-21T00:16:33;2.40;94.50
44111;DHT22;29774;52.664;5.074;2022-11-21T00:18:59;2.40;94.50
44111;DHT22;29774;52.664;5.074;2022-11-21T00:21:24;2.40;94.50
44111;DHT22;29774;52.664;5.074;2022-11-21T00:23:51;2.40;94.50
44111;DHT22;29774;52.664;5.074;2022-11-21T00:26:17;2.40;94.50
44111;DHT22;29774;52.664;5.074;2022-11-21T00:28:43;2.40;94.50
44111;DHT22;29774;52.664;5.074;2022-11-21T00:31:17;2.40;94.50
44111;DHT22;29774;52.664;5.074;2022-11-21T00:33:43;2.40;94.40
44111;DHT22;29774;52.664;5.074;2022-11-21T00:36:09;2.40;94.40
44111;DHT22;29774;52.664;5.074;2022-11-21T00:38:35;2.40;94.40
44111;DHT22;29774;52.664;5.074;2022-11-21T00:41:01;2.50;94.40
44111;DHT22;29774;52.664;5.074;2022-11-21T00:43:26;2.40;94.40
44111;DHT22;29774;52.664;5.074;2022-11-21T00:45:52;2.40;94.40
44111;DHT22;29774;52.664;5.074;2022-11-21T00:48:18;2.40;94.30
44111;DHT22;29774;52.664;5.074;2022-11-21T00:50:43;2.50;94.40
44111;DHT22;29774;52.664;5.074;2022-11-21T00:53:12;2.50;94.40
44111;DHT22;29774;52.664;5.074;2022-11-21T00:55:37;2.50;94.30
44111;DHT22;29774;52.664;5.074;2022-11-21T00:58:03;2.50;94.30
44111;DHT22;29774;52.664;5.074;2022-11-21T01:00:28;2.50;94.30
44111;DHT22;29774;52.664;5.074;2022-11-21T01:02:54;2.50;94.40
44111;DHT22;29774;52.664;5.074;2022-11-21T01:05:20;2.60;94.40
44111;DHT22;29774;52.664;5.074;2022-11-21T01:07:47;2.60;94.40
44111;DHT22;29774;52.664;5.074;2022-11-21T01:10:13;2.60;94.40
44111;DHT22;29774;52.664;5.074;2022-11-21T01:12:39;2.50;94.30
44111;DHT22;29774;52.664;5.074;2022-11-21T01:15:05;2.60;94.40
44111;DHT22;29774;52.664;5.074;2022-11-21T01:17:33;2.60;94.30
44111;DHT22;29774;52.664;5.074;2022-11-21T01:19:59;2.60;94.30
44111;DHT22;29774;52.664;5.074;2022-11-21T01:22:25;2.50;94.20
44111;DHT22;29774;52.664;5.074;2022-11-21T01:24:50;2.50;94.20
44111;DHT22;29774;52.664;5.074;2022-11-21T01:27:16;2.50;94.10
44111;DHT22;29774;52.664;5.074;2022-11-21T01:29:41;2.40;94.10
44111;DHT22;29774;52.664;5.074;2022-11-21T01:32:07;2.50;94.10
44111;DHT22;29774;52.664;5.074;2022-11-21T01:34:32;2.50;94.10
44111;DHT22;29774;52.664;5.074;2022-11-21T01:36:58;2.50;94.10
44111;DHT22;29774;52.664;5.074;2022-11-21T01:39:25;2.50;94.00
44111;DHT22;29774;52.664;5.074;2022-11-21T01:41:51;2.50;94.00
44111;DHT22;29774;52.664;5.074;2022-11-21T01:44:20;2.50;94.00
44111;DHT22;29774;52.664;5.074;2022-11-21T01:46:47;2.50;94.00
44111;DHT22;29774;52.664;5.074;2022-11-21T01:51:51;2.30;93.80
44111;DHT22;29774;52.664;5.074;2022-11-21T01:54:38;2.30;93.70
44111;DHT22;29774;52.664;5.074;2022-11-21T02:00:14;2.20;93.50
44111;DHT22;29774;52.664;5.074;2022-11-21T02:02:47;2.10;93.30
44111;DHT22;29774;52.664;5.074;2022-11-21T02:05:19;2.00;93.10
44111;DHT22;29774;52.664;5.074;2022-11-21T02:07:47;2.00;93.10
44111;DHT22;29774;52.664;5.074;2022-11-21T02:10:14;1.90;93.00
44111;DHT22;29774;52.664;5.074;2022-11-21T02:12:47;1.80;92.90
44111;DHT22;29774;52.664;5.074;2022-11-21T02:15:13;1.80;92.70
44111;DHT22;29774;52.664;5.074;2022-11-21T02:17:39;1.70;92.70
44111;DHT22;29774;52.664;5.074;2022-11-21T02:20:25;1.70;92.70
44111;DHT22;29774;52.664;5.074;2022-11-21T02:25:37;1.60;92.50
44111;DHT22;29774;52.664;5.074;2022-11-21T02:28:07;1.50;92.40
44111;DHT22;29774;52.664;5.074;2022-11-21T02:30:36;1.50;92.50
44111;DHT22;29774;52.664;5.074;2022-11-21T02:33:03;1.70;92.70
44111;DHT22;29774;52.664;5.074;2022-11-21T02:35:29;1.70;92.80
44111;DHT22;29774;52.664;5.074;2022-11-21T02:38:03;1.80;93.00
44111;DHT22;29774;52.664;5.074;2022-11-21T02:40:36;1.90;93.20
44111;DHT22;29774;52.664;5.074;2022-11-21T02:45:41;2.20;93.50
44111;DHT22;29774;52.664;5.074;2022-11-21T02:48:08;2.20;93.60
44111;DHT22;29774;52.664;5.074;2022-11-21T02:50:36;2.20;93.70
44111;DHT22;29774;52.664;5.074;2022-11-21T02:53:03;2.20;93.70
44111;DHT22;29774;52.664;5.074;2022-11-21T02:55:29;2.10;93.70
44111;DHT22;29774;52.664;5.074;2022-11-21T02:57:54;2.00;93.60
44111;DHT22;29774;52.664;5.074;2022-11-21T03:00:21;1.90;93.60
44111;DHT22;29774;52.664;5.074;2022-11-21T03:02:47;1.90;93.60
44111;DHT22;29774;52.664;5.074;2022-11-21T03:05:14;1.90;93.60
44111;DHT22;29774;52.664;5.074;2022-11-21T03:07:40;1.80;93.50
44111;DHT22;29774;52.664;5.074;2022-11-21T03:10:06;1.90;93.50
44111;DHT22;29774;52.664;5.074;2022-11-21T03:12:35;1.80;93.50
44111;DHT22;29774;52.664;5.074;2022-11-21T03:15:01;1.70;93.40
44111;DHT22;29774;52.664;5.074;2022-11-21T03:17:26;1.70;93.30
44111;DHT22;29774;52.664;5.074;2022-11-21T03:19:52;1.70;93.20
44111;DHT22;29774;52.664;5.074;2022-11-21T03:22:18;1.60;93.20
44111;DHT22;29774;52.664;5.074;2022-11-21T03:24:43;1.60;93.20
44111;DHT22;29774;52.664;5.074;2022-11-21T03:27:09;1.60;93.20
44111;DHT22;29774;52.664;5.074;2022-11-21T03:29:34;1.60;93.20
44111;DHT22;29774;52.664;5.074;2022-11-21T03:32:00;1.60;93.20
44111;DHT22;29774;52.664;5.074;2022-11-21T03:34:25;1.70;93.30
44111;DHT22;29774;52.664;5.074;2022-11-21T03:36:51;1.70;93.30
44111;DHT22;29774;52.664;5.074;2022-11-21T03:39:17;1.70;93.40
44111;DHT22;29774;52.664;5.074;2022-11-21T03:41:42;1.70;93.50
44111;DHT22;29774;52.664;5.074;2022-11-21T03:44:10;1.70;93.50
44111;DHT22;29774;52.664;5.074;2022-11-21T03:46:38;1.70;93.60
44111;DHT22;29774;52.664;5.074;2022-11-21T03:49:04;1.70;93.70
44111;DHT22;29774;52.664;5.074;2022-11-21T03:51:30;1.70;93.80
44111;DHT22;29774;52.664;5.074;2022-11-21T03:53:56;1.70;93.80
44111;DHT22;29774;52.664;5.074;2022-11-21T03:56:22;1.70;93.80
44111;DHT22;29774;52.664;5.074;2022-11-21T03:58:48;1.70;93.90
44111;DHT22;29774;52.664;5.074;2022-11-21T04:01:14;1.70;93.90
44111;DHT22;29774;52.664;5.074;2022-11-21T04:03:41;1.80;93.90
44111;DHT22;29774;52.664;5.074;2022-11-21T04:06:07;1.80;93.90
44111;DHT22;29774;52.664;5.074;2022-11-21T04:08:33;1.80;93.90
44111;DHT22;29774;52.664;5.074;2022-11-21T04:10:58;1.90;94.00
44111;DHT22;29774;52.664;5.074;2022-11-21T04:13:24;1.90;94.10
44111;DHT22;29774;52.664;5.074;2022-11-21T04:15:49;2.00;94.20
44111;DHT22;29774;52.664;5.074;2022-11-21T04:18:15;2.00;94.20
44111;DHT22;29774;52.664;5.074;2022-11-21T04:20:41;2.10;94.30
44111;DHT22;29774;52.664;5.074;2022-11-21T04:23:06;2.20;94.30
44111;DHT22;29774;52.664;5.074;2022-11-21T04:25:32;2.20;94.40
44111;DHT22;29774;52.664;5.074;2022-11-21T04:27:58;2.20;94.40
44111;DHT22;29774;52.664;5.074;2022-11-21T04:30:25;2.20;94.40
44111;DHT22;29774;52.664;5.074;2022-11-21T04:32:51;2.20;94.50
44111;DHT22;29774;52.664;5.074;2022-11-21T04:35:17;2.30;94.50
44111;DHT22;29774;52.664;5.074;2022-11-21T04:37:43;2.30;94.60
44111;DHT22;29774;52.664;5.074;2022-11-21T04:40:09;2.30;94.60
44111;DHT22;29774;52.664;5.074;2022-11-21T04:42:34;2.40;94.60
44111;DHT22;29774;52.664;5.074;2022-11-21T04:45:00;2.40;94.60
44111;DHT22;29774;52.664;5.074;2022-11-21T04:47:26;2.40;94.60
44111;DHT22;29774;52.664;5.074;2022-11-21T04:49:51;2.40;94.60
44111;DHT22;29774;52.664;5.074;2022-11-21T04:52:17;2.40;94.60
44111;DHT22;29774;52.664;5.074;2022-11-21T04:54:42;2.40;94.50
44111;DHT22;29774;52.664;5.074;2022-11-21T04:57:08;2.40;94.50
44111;DHT22;29774;52.664;5.074;2022-11-21T04:59:52;2.40;94.50
44111;DHT22;29774;52.664;5.074;2022-11-21T05:02:18;2.30;94.50
44111;DHT22;29774;52.664;5.074;2022-11-21T05:04:43;2.40;94.50
44111;DHT22;29774;52.664;5.074;2022-11-21T05:07:09;2.30;94.40
44111;DHT22;29774;52.664;5.074;2022-11-21T05:09:34;2.30;94.40
44111;DHT22;29774;52.664;5.074;2022-11-21T05:12:00;2.40;94.40
44111;DHT22;29774;52.664;5.074;2022-11-21T05:14:44;2.40;94.40
44111;DHT22;29774;52.664;5.074;2022-11-21T05:17:10;2.40;94.40
44111;DHT22;29774;52.664;5.074;2022-11-21T05:19:35;2.40;94.40
44111;DHT22;29774;52.664;5.074;2022-11-21T05:22:01;2.40;94.40
44111;DHT22;29774;52.664;5.074;2022-11-21T05:24:27;2.40;94.40
44111;DHT22;29774;52.664;5.074;2022-11-21T05:26:53;2.30;94.30
44111;DHT22;29774;52.664;5.074;2022-11-21T05:29:20;2.30;94.30
44111;DHT22;29774;52.664;5.074;2022-11-21T05:31:46;2.30;94.30
44111;DHT22;29774;52.664;5.074;2022-11-21T05:34:12;2.30;94.30
44111;DHT22;29774;52.664;5.074;2022-11-21T05:36:37;2.40;94.30
44111;DHT22;29774;52.664;5.074;2022-11-21T05:39:03;2.40;94.30
44111;DHT22;29774;52.664;5.074;2022-11-21T05:41:29;2.40;94.30
44111;DHT22;29774;52.664;5.074;2022-11-21T05:43:55;2.40;94.30
44111;DHT22;29774;52.664;5.074;2022-11-21T05:46:23;2.40;94.40
44111;DHT22;29774;52.664;5.074;2022-11-21T05:48:50;2.40;94.40
44111;DHT22;29774;52.664;5.074;2022-11-21T05:51:16;2.40;94.40
44111;DHT22;29774;52.664;5.074;2022-11-21T05:53:43;2.40;94.40
44111;DHT22;29774;52.664;5.074;2022-11-21T05:56:11;2.40;94.40
44111;DHT22;29774;52.664;5.074;2022-11-21T06:01:40;2.40;94.40
44111;DHT22;29774;52.664;5.074;2022-11-21T06:04:24;2.40;94.50
44111;DHT22;29774;52.664;5.074;2022-11-21T06:06:50;2.50;94.50
44111;DHT22;29774;52.664;5.074;2022-11-21T06:09:15;2.50;94.50
44111;DHT22;29774;52.664;5.074;2022-11-21T06:11:41;2.50;94.60
44111;DHT22;29774;52.664;5.074;2022-11-21T06:14:06;2.50;94.60
44111;DHT22;29774;52.664;5.074;2022-11-21T06:16:32;2.50;94.60
44111;DHT22;29774;52.664;5.074;2022-11-21T06:18:57;2.50;94.60
44111;DHT22;29774;52.664;5.074;2022-11-21T06:21:25;2.50;94.60
44111;DHT22;29774;52.664;5.074;2022-11-21T06:23:52;2.50;94.70
44111;DHT22;29774;52.664;5.074;2022-11-21T06:26:20;2.50;94.70
44111;DHT22;29774;52.664;5.074;2022-11-21T06:28:46;2.60;94.70
44111;DHT22;29774;52.664;5.074;2022-11-21T06:31:23;2.60;94.70
44111;DHT22;29774;52.664;5.074;2022-11-21T06:33:56;2.50;94.70
44111;DHT22;29774;52.664;5.074;2022-11-21T06:36:22;2.60;94.70
44111;DHT22;29774;52.664;5.074;2022-11-21T06:38:48;2.60;94.70
44111;DHT22;29774;52.664;5.074;2022-11-21T06:41:16;2.60;94.70
44111;DHT22;29774;52.664;5.074;2022-11-21T06:43:42;2.60;94.80
44111;DHT22;29774;52.664;5.074;2022-11-21T06:46:09;2.60;94.80
44111;DHT22;29774;52.664;5.074;2022-11-21T06:48:35;2.60;94.80
44111;DHT22;29774;52.664;5.074;2022-11-21T06:51:05;2.60;94.80
44111;DHT22;29774;52.664;5.074;2022-11-21T06:53:33;2.60;94.80
44111;DHT22;29774;52.664;5.074;2022-11-21T06:55:59;2.70;94.90
44111;DHT22;29774;52.664;5.074;2022-11-21T06:58:25;2.70;94.90
44111;DHT22;29774;52.664;5.074;2022-11-21T07:00:51;2.70;94.90
44111;DHT22;29774;52.664;5.074;2022-11-21T07:03:17;2.70;94.90
44111;DHT22;29774;52.664;5.074;2022-11-21T07:05:42;2.80;95.00
44111;DHT22;29774;52.664;5.074;2022-11-21T07:08:08;2.80;95.00
44111;DHT22;29774;52.664;5.074;2022-11-21T07:10:33;2.80;95.00
44111;DHT22;29774;52.664;5.074;2022-11-21T07:13:00;2.80;95.10
44111;DHT22;29774;52.664;5.074;2022-11-21T07:15:45;2.80;95.10
44111;DHT22;29774;52.664;5.074;2022-11-21T07:18:11;2.90;95.10
44111;DHT22;29774;52.664;5.074;2022-11-21T07:20:38;2.90;95.10
44111;DHT22;29774;52.664;5.074;2022-11-21T07:23:04;2.90;95.20
44111;DHT22;29774;52.664;5.074;2022-11-21T07:25:29;2.90;95.20
44111;DHT22;29774;52.664;5.074;2022-11-21T07:27:59;3.00;95.20
44111;DHT22;29774;52.664;5.074;2022-11-21T07:30:24;3.00;95.20
44111;DHT22;29774;52.664;5.074;2022-11-21T07:32:57;3.00;95.20
44111;DHT22;29774;52.664;5.074;2022-11-21T07:35:24;3.00;95.30
44111;DHT22;29774;52.664;5.074;2022-11-21T07:37:49;3.00;95.30
44111;DHT22;29774;52.664;5.074;2022-11-21T07:40:15;3.00;95.30
44111;DHT22;29774;52.664;5.074;2022-11-21T07:42:41;3.10;95.30
44111;DHT22;29774;52.664;5.074;2022-11-21T07:45:07;3.10;95.40
44111;DHT22;29774;52.664;5.074;2022-11-21T07:47:33;3.10;95.40
44111;DHT22;29774;52.664;5.074;2022-11-21T07:49:59;3.10;95.40
44111;DHT22;29774;52.664;5.074;2022-11-21T07:52:24;3.10;95.40
44111;DHT22;29774;52.664;5.074;2022-11-21T07:54:50;3.10;95.40
44111;DHT22;29774;52.664;5.074;2022-11-21T07:57:16;3.10;95.40
44111;DHT22;29774;52.664;5.074;2022-11-21T07:59:41;3.10;95.40
44111;DHT22;29774;52.664;5.074;2022-11-21T08:02:18;3.10;95.40
44111;DHT22;29774;52.664;5.074;2022-11-21T08:04:43;3.10;95.40
44111;DHT22;29774;52.664;5.074;2022-11-21T08:07:09;3.10;95.50
44111;DHT22;29774;52.664;5.074;2022-11-21T08:09:35;3.10;95.50
44111;DHT22;29774;52.664;5.074;2022-11-21T08:12:00;3.10;95.50
44111;DHT22;29774;52.664;5.074;2022-11-21T08:14:26;3.10;95.50
44111;DHT22;29774;52.664;5.074;2022-11-21T08:16:52;3.10;95.50
44111;DHT22;29774;52.664;5.074;2022-11-21T08:19:18;3.10;95.50
44111;DHT22;29774;52.664;5.074;2022-11-21T08:21:43;3.10;95.50
44111;DHT22;29774;52.664;5.074;2022-11-21T08:24:09;3.10;95.50
44111;DHT22;29774;52.664;5.074;2022-11-21T08:26:39;3.10;95.50
44111;DHT22;29774;52.664;5.074;2022-11-21T08:29:05;3.20;95.50
44111;DHT22;29774;52.664;5.074;2022-11-21T08:31:30;3.20;95.50
44111;DHT22;29774;52.664;5.074;2022-11-21T08:33:56;3.20;95.50
44111;DHT22;29774;52.664;5.074;2022-11-21T08:36:22;3.20;95.50
44111;DHT22;29774;52.664;5.074;2022-11-21T08:38:47;3.20;95.50
44111;DHT22;29774;52.664;5.074;2022-11-21T08:41:13;3.20;95.50
44111;DHT22;29774;52.664;5.074;2022-11-21T08:43:57;3.20;95.50
44111;DHT22;29774;52.664;5.074;2022-11-21T08:46:22;3.20;95.50
44111;DHT22;29774;52.664;5.074;2022-11-21T08:48:54;3.30;95.50
44111;DHT22;29774;52.664;5.074;2022-11-21T08:51:20;3.30;95.50
44111;DHT22;29774;52.664;5.074;2022-11-21T08:53:46;3.40;95.60
44111;DHT22;29774;52.664;5.074;2022-11-21T08:56:12;3.40;95.60
44111;DHT22;29774;52.664;5.074;2022-11-21T08:58:38;3.40;95.60
44111;DHT22;29774;52.664;5.074;2022-11-21T09:01:04;3.40;95.50
44111;DHT22;29774;52.664;5.074;2022-11-21T09:03:30;3.50;95.60
44111;DHT22;29774;52.664;5.074;2022-11-21T09:05:57;3.40;95.50
44111;DHT22;29774;52.664;5.074;2022-11-21T09:08:22;3.50;95.50
44111;DHT22;29774;52.664;5.074;2022-11-21T09:10:48;3.50;95.50
44111;DHT22;29774;52.664;5.074;2022-11-21T09:13:14;3.50;95.50
44111;DHT22;29774;52.664;5.074;2022-11-21T09:15:39;3.50;95.50
44111;DHT22;29774;52.664;5.074;2022-11-21T09:18:23;3.50;95.50
44111;DHT22;29774;52.664;5.074;2022-11-21T09:20:49;3.50;95.50
44111;DHT22;29774;52.664;5.074;2022-11-21T09:23:15;3.50;95.50
44111;DHT22;29774;52.664;5.074;2022-11-21T09:25:41;3.50;95.50
44111;DHT22;29774;52.664;5.074;2022-11-21T09:28:09;3.60;95.50
44111;DHT22;29774;52.664;5.074;2022-11-21T09:30:35;3.60;95.50
44111;DHT22;29774;52.664;5.074;2022-11-21T09:33:06;3.60;95.60
44111;DHT22;29774;52.664;5.074;2022-11-21T09:35:32;3.70;95.60
44111;DHT22;29774;52.664;5.074;2022-11-21T09:37:58;3.70;95.60
44111;DHT22;29774;52.664;5.074;2022-11-21T09:40:24;3.70;95.60
44111;DHT22;29774;52.664;5.074;2022-11-21T09:46:17;3.80;95.60
44111;DHT22;29774;52.664;5.074;2022-11-21T09:48:54;3.90;95.60
44111;DHT22;29774;52.664;5.074;2022-11-21T09:51:23;3.90;95.70
44111;DHT22;29774;52.664;5.074;2022-11-21T09:54:03;4.00;95.70
44111;DHT22;29774;52.664;5.074;2022-11-21T09:56:34;4.10;95.70
44111;DHT22;29774;52.664;5.074;2022-11-21T09:59:11;4.20;95.80
44111;DHT22;29774;52.664;5.074;2022-11-21T10:01:41;4.20;95.80
44111;DHT22;29774;52.664;5.074;2022-11-21T10:04:06;4.30;95.80
44111;DHT22;29774;52.664;5.074;2022-11-21T10:06:41;4.30;95.80
44111;DHT22;29774;52.664;5.074;2022-11-21T10:23:35;4.40;95.80
44111;DHT22;29774;52.664;5.074;2022-11-21T10:28:50;4.50;95.80
44111;DHT22;29774;52.664;5.074;2022-11-21T10:31:19;4.60;95.80
44111;DHT22;29774;52.664;5.074;2022-11-21T10:33:45;4.60;95.80
44111;DHT22;29774;52.664;5.074;2022-11-21T10:36:15;4.70;95.80
44111;DHT22;29774;52.664;5.074;2022-11-21T10:38:43;4.70;95.80
44111;DHT22;29774;52.664;5.074;2022-11-21T10:44:13;4.90;95.80
44111;DHT22;29774;52.664;5.074;2022-11-21T10:47:10;4.90;95.70
44111;DHT22;29774;52.664;5.074;2022-11-21T10:49:36;4.90;95.70
44111;DHT22;29774;52.664;5.074;2022-11-21T10:52:15;4.90;95.60
44111;DHT22;29774;52.664;5.074;2022-11-21T11:02:40;5.00;95.50
44111;DHT22;29774;52.664;5.074;2022-11-21T11:07:41;5.00;95.40
44111;DHT22;29774;52.664;5.074;2022-11-21T11:10:17;5.00;95.40
44111;DHT22;29774;52.664;5.074;2022-11-21T11:12:48;5.00;95.40
44111;DHT22;29774;52.664;5.074;2022-11-21T11:15:33;5.10;95.40
44111;DHT22;29774;52.664;5.074;2022-11-21T11:18:01;5.10;95.40
44111;DHT22;29774;52.664;5.074;2022-11-21T11:20:42;5.10;95.40
44111;DHT22;29774;52.664;5.074;2022-11-21T11:25:49;5.20;95.40
44111;DHT22;29774;52.664;5.074;2022-11-21T11:28:16;5.20;95.40
44111;DHT22;29774;52.664;5.074;2022-11-21T11:30:43;5.20;95.40
44111;DHT22;29774;52.664;5.074;2022-11-21T11:33:35;5.20;95.40
44111;DHT22;29774;52.664;5.074;2022-11-21T11:36:13;5.20;95.30
44111;DHT22;29774;52.664;5.074;2022-11-21T11:38:47;5.20;95.40
44111;DHT22;29774;52.664;5.074;2022-11-21T11:47:58;5.30;95.40
44111;DHT22;29774;52.664;5.074;2022-11-21T11:53:47;5.40;95.40
44111;DHT22;29774;52.664;5.074;2022-11-21T11:56:12;5.40;95.40
44111;DHT22;29774;52.664;5.074;2022-11-21T12:01:18;5.50;95.30
44111;DHT22;29774;52.664;5.074;2022-11-21T12:04:05;5.50;95.30
44111;DHT22;29774;52.664;5.074;2022-11-21T12:07:00;5.50;95.30
44111;DHT22;29774;52.664;5.074;2022-11-21T12:09:34;5.60;95.30
44111;DHT22;29774;52.664;5.074;2022-11-21T12:12:15;5.60;95.30
44111;DHT22;29774;52.664;5.074;2022-11-21T12:14:51;5.60;95.30
44111;DHT22;29774;52.664;5.074;2022-11-21T12:17:42;5.60;95.20
44111;DHT22;29774;52.664;5.074;2022-11-21T12:20:20;5.60;95.20
44111;DHT22;29774;52.664;5.074;2022-11-21T12:22:48;5.60;95.20
44111;DHT22;29774;52.664;5.074;2022-11-21T12:25:18;5.70;95.20
44111;DHT22;29774;52.664;5.074;2022-11-21T12:27:49;5.70;95.20
44111;DHT22;29774;52.664;5.074;2022-11-21T12:33:20;5.70;95.10
44111;DHT22;29774;52.664;5.074;2022-11-21T12:43:52;5.80;95.10
44111;DHT22;29774;52.664;5.074;2022-11-21T12:46:49;5.90;95.10
44111;DHT22;29774;52.664;5.074;2022-11-21T12:49:46;5.90;95.10
44111;DHT22;29774;52.664;5.074;2022-11-21T12:52:40;5.90;95.00
44111;DHT22;29774;52.664;5.074;2022-11-21T13:01:13;5.90;95.00
44111;DHT22;29774;52.664;5.074;2022-11-21T13:04:00;5.90;94.90
44111;DHT22;29774;52.664;5.074;2022-11-21T13:06:35;5.90;94.80
44111;DHT22;29774;52.664;5.074;2022-11-21T13:09:06;5.90;94.80
44111;DHT22;29774;52.664;5.074;2022-11-21T13:17:01;6.00;94.80
44111;DHT22;29774;52.664;5.074;2022-11-21T13:25:12;6.00;94.80
44111;DHT22;29774;52.664;5.074;2022-11-21T13:27:42;6.00;94.80
44111;DHT22;29774;52.664;5.074;2022-11-21T13:32:42;6.00;94.80
44111;DHT22;29774;52.664;5.074;2022-11-21T13:37:59;6.00;94.80
44111;DHT22;29774;52.664;5.074;2022-11-21T13:45:40;6.10;94.80
44111;DHT22;29774;52.664;5.074;2022-11-21T13:48:36;6.10;94.80
44111;DHT22;29774;52.664;5.074;2022-11-21T13:51:45;6.10;94.80
44111;DHT22;29774;52.664;5.074;2022-11-21T13:54:37;6.20;94.80
44111;DHT22;29774;52.664;5.074;2022-11-21T14:06:09;6.20;94.90
44111;DHT22;29774;52.664;5.074;2022-11-21T14:08:40;6.20;94.80
44111;DHT22;29774;52.664;5.074;2022-11-21T14:11:29;6.20;94.80
44111;DHT22;29774;52.664;5.074;2022-11-21T14:13:56;6.20;94.80
44111;DHT22;29774;52.664;5.074;2022-11-21T14:16:35;6.10;94.70
44111;DHT22;29774;52.664;5.074;2022-11-21T14:19:12;6.10;94.70
44111;DHT22;29774;52.664;5.074;2022-11-21T14:21:39;6.10;94.70
44111;DHT22;29774;52.664;5.074;2022-11-21T14:24:13;6.10;94.70
44111;DHT22;29774;52.664;5.074;2022-11-21T14:26:44;6.10;94.70
44111;DHT22;29774;52.664;5.074;2022-11-21T14:29:39;6.10;94.70
44111;DHT22;29774;52.664;5.074;2022-11-21T14:32:12;6.10;94.70
44111;DHT22;29774;52.664;5.074;2022-11-21T14:34:37;6.10;94.70
44111;DHT22;29774;52.664;5.074;2022-11-21T14:37:05;6.10;94.60
44111;DHT22;29774;52.664;5.074;2022-11-21T14:39:32;6.10;94.70
44111;DHT22;29774;52.664;5.074;2022-11-21T14:42:01;6.10;94.60
44111;DHT22;29774;52.664;5.074;2022-11-21T14:44:27;6.10;94.60
44111;DHT22;29774;52.664;5.074;2022-11-21T14:47:18;6.00;94.60
44111;DHT22;29774;52.664;5.074;2022-11-21T14:49:48;6.00;94.60
44111;DHT22;29774;52.664;5.074;2022-11-21T14:52:23;6.00;94.60
44111;DHT22;29774;52.664;5.074;2022-11-21T14:54:55;6.00;94.60
44111;DHT22;29774;52.664;5.074;2022-11-21T14:57:24;6.00;94.60
44111;DHT22;29774;52.664;5.074;2022-11-21T14:59:50;5.90;94.60
44111;DHT22;29774;52.664;5.074;2022-11-21T15:02:28;6.00;94.60
44111;DHT22;29774;52.664;5.074;2022-11-21T15:05:00;5.90;94.60
44111;DHT22;29774;52.664;5.074;2022-11-21T15:07:37;5.90;94.60
44111;DHT22;29774;52.664;5.074;2022-11-21T15:10:03;5.90;94.60
44111;DHT22;29774;52.664;5.074;2022-11-21T15:12:34;5.90;94.60
44111;DHT22;29774;52.664;5.074;2022-11-21T15:15:32;5.80;94.60
44111;DHT22;29774;52.664;5.074;2022-11-21T15:18:00;5.80;94.60
44111;DHT22;29774;52.664;5.074;2022-11-21T15:20:27;5.80;94.60
44111;DHT22;29774;52.664;5.074;2022-11-21T15:22:55;5.80;94.70
44111;DHT22;29774;52.664;5.074;2022-11-21T15:25:24;5.80;94.60
44111;DHT22;29774;52.664;5.074;2022-11-21T15:27:54;5.80;94.70
44111;DHT22;29774;52.664;5.074;2022-11-21T15:30:34;5.70;94.70
44111;DHT22;29774;52.664;5.074;2022-11-21T15:33:51;5.80;94.70
44111;DHT22;29774;52.664;5.074;2022-11-21T15:36:15;5.80;94.70
44111;DHT22;29774;52.664;5.074;2022-11-21T15:38:49;5.80;94.70
44111;DHT22;29774;52.664;5.074;2022-11-21T15:43:52;5.80;94.80
44111;DHT22;29774;52.664;5.074;2022-11-21T15:48:48;5.80;94.80
44111;DHT22;29774;52.664;5.074;2022-11-21T15:51:15;5.80;94.90
44111;DHT22;29774;52.664;5.074;2022-11-21T15:53:40;5.70;94.90
44111;DHT22;29774;52.664;5.074;2022-11-21T15:56:09;5.80;94.90
44111;DHT22;29774;52.664;5.074;2022-11-21T15:58:35;5.80;94.90
44111;DHT22;29774;52.664;5.074;2022-11-21T16:01:01;5.80;94.90
44111;DHT22;29774;52.664;5.074;2022-11-21T16:03:26;5.80;94.90
44111;DHT22;29774;52.664;5.074;2022-11-21T16:05:52;5.70;94.90
44111;DHT22;29774;52.664;5.074;2022-11-21T16:08:17;5.70;94.90
44111;DHT22;29774;52.664;5.074;2022-11-21T16:10:43;5.70;94.90
44111;DHT22;29774;52.664;5.074;2022-11-21T16:13:09;5.70;94.90
44111;DHT22;29774;52.664;5.074;2022-11-21T16:15:35;5.70;95.00
44111;DHT22;29774;52.664;5.074;2022-11-21T16:18:01;5.70;94.90
44111;DHT22;29774;52.664;5.074;2022-11-21T16:20:26;5.80;95.00
44111;DHT22;29774;52.664;5.074;2022-11-21T16:22:53;5.70;95.00
44111;DHT22;29774;52.664;5.074;2022-11-21T16:25:18;5.70;95.00
44111;DHT22;29774;52.664;5.074;2022-11-21T16:27:44;5.70;95.00
44111;DHT22;29774;52.664;5.074;2022-11-21T16:30:10;5.80;95.00
44111;DHT22;29774;52.664;5.074;2022-11-21T16:32:36;5.70;95.00
44111;DHT22;29774;52.664;5.074;2022-11-21T16:35:02;5.80;95.00
44111;DHT22;29774;52.664;5.074;2022-11-21T16:37:30;5.80;95.00
44111;DHT22;29774;52.664;5.074;2022-11-21T16:39:56;5.80;95.00
44111;DHT22;29774;52.664;5.074;2022-11-21T16:42:21;5.80;95.00
44111;DHT22;29774;52.664;5.074;2022-11-21T16:44:47;5.80;95.00
44111;DHT22;29774;52.664;5.074;2022-11-21T16:47:13;5.80;95.00
44111;DHT22;29774;52.664;5.074;2022-11-21T16:49:38;5.80;95.00
44111;DHT22;29774;52.664;5.074;2022-11-21T16:52:09;5.80;95.00
44111;DHT22;29774;52.664;5.074;2022-11-21T16:54:34;5.80;95.00
44111;DHT22;29774;52.664;5.074;2022-11-21T16:57:00;5.80;95.10
44111;DHT22;29774;52.664;5.074;2022-11-21T16:59:26;5.80;95.10
44111;DHT22;29774;52.664;5.074;2022-11-21T17:01:51;5.80;95.10
44111;DHT22;29774;52.664;5.074;2022-11-21T17:04:17;5.80;95.10
44111;DHT22;29774;52.664;5.074;2022-11-21T17:06:43;5.80;95.20
44111;DHT22;29774;52.664;5.074;2022-11-21T17:09:09;5.80;95.20
44111;DHT22;29774;52.664;5.074;2022-11-21T17:11:35;5.80;95.20
44111;DHT22;29774;52.664;5.074;2022-11-21T17:14:02;5.80;95.20
44111;DHT22;29774;52.664;5.074;2022-11-21T17:16:29;5.80;95.20
44111;DHT22;29774;52.664;5.074;2022-11-21T17:18:57;5.80;95.20
44111;DHT22;29774;52.664;5.074;2022-11-21T17:21:24;5.80;95.20
44111;DHT22;29774;52.664;5.074;2022-11-21T17:23:50;5.90;95.30
44111;DHT22;29774;52.664;5.074;2022-11-21T17:26:18;5.80;95.20
44111;DHT22;29774;52.664;5.074;2022-11-21T17:28:53;5.80;95.30
44111;DHT22;29774;52.664;5.074;2022-11-21T17:31:19;5.80;95.30
44111;DHT22;29774;52.664;5.074;2022-11-21T17:33:44;5.80;95.30
44111;DHT22;29774;52.664;5.074;2022-11-21T17:36:14;5.80;95.30
44111;DHT22;29774;52.664;5.074;2022-11-21T17:38:40;5.80;95.30
44111;DHT22;29774;52.664;5.074;2022-11-21T17:41:09;5.80;95.30
44111;DHT22;29774;52.664;5.074;2022-11-21T17:43:35;5.80;95.30
44111;DHT22;29774;52.664;5.074;2022-11-21T17:46:03;5.80;95.30
44111;DHT22;29774;52.664;5.074;2022-11-21T17:48:31;5.80;95.40
44111;DHT22;29774;52.664;5.074;2022-11-21T17:51:11;5.90;95.40
44111;DHT22;29774;52.664;5.074;2022-11-21T17:53:39;5.80;95.30